Sds Green — ICOK — position and weather

sailwx.info

Track history (hours):
 
Tides and Currents Weather Stations Pressure Air Temp Water Temp Dewpoint Dewpoint Depression Visibility Wind Speed Wind Dir Waves Ship Positions

Sds Green

Last reported at 2018-Jan-20 05:15 UTC. Time now 2018-Jan-20 21:18 UTC.
Position N 37°53' E 015°52'.

Length 108 m; draft 6.9 m.

Type: Cargo ship. MMSI: 247292200.

Date/timePositionNaut miles runAvg speedWind from/ knotsBaromVisibWave heightAir tempDewpointWater temp
2018-Jan-20 05:15N 37°53' E 015°52'311.5
2018-Jan-20 04:58N 37°53' E 015°48'610.6
2018-Jan-20 04:26N 37°55' E 015°41'511.0
2018-Jan-20 04:01N 37°58' E 015°37'612.3
2018-Jan-20 03:30N 38°04' E 015°35'1012.8
2018-Jan-20 02:42N 38°14' E 015°36'4 9.7
2018-Jan-20 02:18N 38°17' E 015°40'311.7
2018-Jan-20 02:00N 38°19' E 015°37'611.6
2018-Jan-20 01:30N 38°22' E 015°30'612.0
2018-Jan-20 01:00N 38°26' E 015°24'611.7
2018-Jan-20 00:30N 38°29' E 015°18'611.6
2018-Jan-19 23:59N 38°32' E 015°11'611.5
2018-Jan-19 23:30N 38°35' E 015°05'  
2018-Jan-11 17:09N 40°26' E 002°35'18 9.3
2018-Jan-11 15:14N 40°16' E 002°55'2 9.1
2018-Jan-11 15:00N 40°15' E 002°57'5 9.1
2018-Jan-11 14:28N 40°13' E 003°02'273 9.8
2018-Jan-10 10:40N 38°46' E 008°38'310.8
2018-Jan-10 10:24N 38°46' E 008°42'  
Track history (hours):
 
Tides and Currents Weather Stations Pressure Air Temp Water Temp Dewpoint Dewpoint Depression Visibility Wind Speed Wind Dir Waves Ship Positions

Sds Green

Last reported at 2018-Jan-20 05:15 UTC. Time now 2018-Jan-20 21:18 UTC.
Position N 37°53' E 015°52'.

Length 108 m; draft 6.9 m.

Type: Cargo ship. MMSI: 247292200.

Date/timePositionNaut miles runAvg speedWind from/ knotsBaromVisibWave heightAir tempDewpointWater temp
2018-Jan-20 05:15N 37°53' E 015°52'311.5
2018-Jan-20 04:58N 37°53' E 015°48'610.6
2018-Jan-20 04:26N 37°55' E 015°41'511.0
2018-Jan-20 04:01N 37°58' E 015°37'612.3
2018-Jan-20 03:30N 38°04' E 015°35'1012.8
2018-Jan-20 02:42N 38°14' E 015°36'4 9.7
2018-Jan-20 02:18N 38°17' E 015°40'311.7
2018-Jan-20 02:00N 38°19' E 015°37'611.6
2018-Jan-20 01:30N 38°22' E 015°30'612.0
2018-Jan-20 01:00N 38°26' E 015°24'611.7
2018-Jan-20 00:30N 38°29' E 015°18'611.6
2018-Jan-19 23:59N 38°32' E 015°11'611.5
2018-Jan-19 23:30N 38°35' E 015°05'  
2018-Jan-11 17:09N 40°26' E 002°35'18 9.3
2018-Jan-11 15:14N 40°16' E 002°55'2 9.1
2018-Jan-11 15:00N 40°15' E 002°57'5 9.1
2018-Jan-11 14:28N 40°13' E 003°02'273 9.8
2018-Jan-10 10:40N 38°46' E 008°38'310.8
2018-Jan-10 10:24N 38°46' E 008°42'  

Dump ship's entire track history